createdAt,value
2018-02-18T00:02:16.053Z,31.50
2018-02-18T00:04:43.539Z,28.53
2018-02-18T00:07:11.886Z,30.03
2018-02-18T00:09:39.365Z,30.60
2018-02-18T00:12:08.386Z,29.13
2018-02-18T00:14:41.471Z,29.03
2018-02-18T00:17:08.971Z,28.10
2018-02-18T00:19:36.483Z,30.27
2018-02-18T00:22:03.951Z,28.37
2018-02-18T00:24:32.286Z,28.40
2018-02-18T00:26:59.796Z,31.43
2018-02-18T00:29:27.296Z,31.13
2018-02-18T00:31:55.059Z,28.80
2018-02-18T00:34:22.584Z,28.20
2018-02-18T00:36:50.077Z,29.30
2018-02-18T00:39:17.997Z,28.20
2018-02-18T00:41:45.515Z,29.53
2018-02-18T00:44:13.022Z,29.13
2018-02-18T00:46:41.331Z,27.40
2018-02-18T00:49:09.602Z,29.20
2018-02-18T00:51:37.103Z,30.73
2018-02-18T00:54:04.615Z,27.27
2018-02-18T00:56:32.116Z,28.77
2018-02-18T00:59:00.598Z,27.00
2018-02-18T01:01:28.090Z,28.87
2018-02-18T01:03:55.574Z,29.50
2018-02-18T01:06:23.084Z,27.80
2018-02-18T01:08:50.579Z,29.90
2018-02-18T01:11:18.088Z,25.80
2018-02-18T01:13:45.702Z,27.33
2018-02-18T01:16:13.226Z,26.97
2018-02-18T01:18:40.731Z,29.00
2018-02-18T01:21:09.099Z,25.97
2018-02-18T01:23:36.598Z,27.33
2018-02-18T01:26:04.136Z,30.30
2018-02-18T01:28:32.391Z,26.73
2018-02-18T01:30:59.894Z,26.80
2018-02-18T01:33:27.404Z,28.73
2018-02-18T01:35:54.903Z,27.97
2018-02-18T01:38:23.149Z,28.23
2018-02-18T01:40:50.618Z,27.57
2018-02-18T01:43:18.862Z,27.23
2018-02-18T01:45:46.470Z,29.43
2018-02-18T01:48:13.952Z,25.40
2018-02-18T01:50:41.485Z,29.03
2018-02-18T01:53:09.047Z,26.93
2018-02-18T01:55:37.414Z,26.87
2018-02-18T01:58:05.702Z,27.27
2018-02-18T02:00:33.312Z,29.10
2018-02-18T02:03:02.059Z,29.37
2018-02-18T02:05:29.591Z,26.83
2018-02-18T02:07:57.888Z,26.67
2018-02-18T02:10:25.585Z,27.43
2018-02-18T02:12:53.167Z,27.43
2018-02-18T02:15:22.387Z,27.93
2018-02-18T02:17:51.702Z,29.60
2018-02-18T02:20:19.276Z,29.07
2018-02-18T02:22:46.880Z,29.77
2018-02-18T02:25:14.360Z,29.30
2018-02-18T02:27:42.630Z,26.73
2018-02-18T02:30:10.908Z,28.73
2018-02-18T02:32:39.145Z,27.87
2018-02-18T02:35:06.651Z,27.80
2018-02-18T02:37:35.156Z,28.77
2018-02-18T02:40:02.652Z,28.03
2018-02-18T02:42:30.154Z,29.93
2018-02-18T02:44:57.736Z,29.30
2018-02-18T02:47:25.223Z,29.20
2018-02-18T02:49:52.718Z,29.53
2018-02-18T02:52:21.010Z,30.63
2018-02-18T02:54:48.557Z,30.30
2018-02-18T02:57:16.108Z,27.37
2018-02-18T02:59:44.354Z,29.57
2018-02-18T03:02:12.634Z,31.33
2018-02-18T03:04:40.129Z,29.97
2018-02-18T03:07:07.662Z,29.13
2018-02-18T03:09:35.919Z,29.73
2018-02-18T03:12:03.409Z,30.37
2018-02-18T03:14:31.654Z,28.30
2018-02-18T03:16:59.150Z,30.70
2018-02-18T03:19:26.657Z,28.73
2018-02-18T03:21:54.169Z,31.60
2018-02-18T03:24:21.694Z,28.07
2018-02-18T03:26:49.174Z,30.77
2018-02-18T03:29:18.273Z,30.50
2018-02-18T03:31:46.523Z,29.10
2018-02-18T03:34:14.034Z,33.37
2018-02-18T03:36:41.523Z,28.70
2018-02-18T03:39:09.027Z,30.10
2018-02-18T03:41:36.527Z,31.67
2018-02-18T03:44:04.027Z,29.80
2018-02-18T03:46:32.314Z,30.83
2018-02-18T03:48:59.842Z,28.80
2018-02-18T03:51:27.414Z,30.37
2018-02-18T03:53:55.690Z,30.10
2018-02-18T03:56:23.154Z,30.90
2018-02-18T03:58:52.287Z,30.17
2018-02-18T04:01:19.794Z,29.50
2018-02-18T04:03:48.054Z,31.47
2018-02-18T04:06:15.533Z,29.43
2018-02-18T04:08:43.011Z,31.87
2018-02-18T04:11:10.723Z,30.17
2018-02-18T04:13:38.230Z,28.90
2018-02-18T04:16:06.475Z,28.33
2018-02-18T04:18:33.972Z,31.20
2018-02-18T04:21:01.474Z,27.27
2018-02-18T04:23:28.952Z,29.13
2018-02-18T04:25:56.438Z,32.43
2018-02-18T04:28:23.924Z,29.47
2018-02-18T04:30:51.431Z,32.10
2018-02-18T04:33:19.678Z,32.13
2018-02-18T04:35:47.170Z,29.87
2018-02-18T04:38:14.670Z,30.97
2018-02-18T04:40:42.188Z,33.20
2018-02-18T04:43:10.449Z,33.40
2018-02-18T04:45:38.746Z,29.80
2018-02-18T04:48:06.247Z,32.07
2018-02-18T04:50:33.727Z,30.00
2018-02-18T04:53:01.258Z,33.07
2018-02-18T04:55:28.721Z,29.23
2018-02-18T04:57:56.194Z,29.07
2018-02-18T05:00:23.694Z,29.47
2018-02-18T05:02:51.179Z,32.33
2018-02-18T05:05:18.667Z,29.63
2018-02-18T05:07:46.199Z,28.63
2018-02-18T05:10:13.693Z,32.33
2018-02-18T05:12:42.690Z,31.93
2018-02-18T05:15:10.350Z,28.27
2018-02-18T05:17:37.854Z,34.07
2018-02-18T05:20:05.460Z,32.03
2018-02-18T05:22:32.983Z,31.57
2018-02-18T05:25:00.962Z,30.70
2018-02-18T05:27:28.439Z,30.03
2018-02-18T05:29:55.910Z,30.37
2018-02-18T05:32:23.436Z,30.43
2018-02-18T05:34:51.642Z,33.50
2018-02-18T05:37:19.122Z,29.77
2018-02-18T05:39:46.611Z,33.93
2018-02-18T05:42:14.094Z,32.53
2018-02-18T05:44:41.596Z,31.87
2018-02-18T05:47:09.091Z,30.40
2018-02-18T05:49:36.561Z,30.47
2018-02-18T05:52:04.043Z,31.57
2018-02-18T05:54:31.526Z,31.57
2018-02-18T05:56:59.019Z,32.50
2018-02-18T05:59:27.503Z,29.67
2018-02-18T06:01:54.973Z,35.93
2018-02-18T06:04:22.527Z,34.50
2018-02-18T06:06:50.019Z,31.73
2018-02-18T06:09:17.482Z,32.23
2018-02-18T06:11:45.746Z,33.07
2018-02-18T06:14:13.212Z,31.77
2018-02-18T06:16:42.214Z,30.07
2018-02-18T06:19:10.452Z,32.60
2018-02-18T06:21:38.039Z,33.80
2018-02-18T06:24:06.304Z,31.77
2018-02-18T06:26:33.789Z,33.50
2018-02-18T06:29:02.135Z,34.40
2018-02-18T06:31:29.602Z,34.07
2018-02-18T06:33:58.026Z,29.97
2018-02-18T06:36:25.491Z,31.03
2018-02-18T06:38:52.969Z,30.60
2018-02-18T06:41:20.452Z,31.90
2018-02-18T06:43:47.945Z,30.60
2018-02-18T06:46:15.431Z,28.17
2018-02-18T06:48:42.926Z,29.70
2018-02-18T06:51:12.042Z,32.00
2018-02-18T06:53:40.283Z,33.17
2018-02-18T06:56:10.168Z,31.65
2018-02-18T06:58:39.837Z,30.90
2018-02-18T07:01:09.369Z,36.00
2018-02-18T07:03:38.241Z,30.60
2018-02-18T07:06:07.704Z,33.83
2018-02-18T07:08:35.179Z,32.70
2018-02-18T07:11:03.423Z,36.67
2018-02-18T07:13:31.429Z,33.93
2018-02-18T07:16:00.410Z,32.87
2018-02-18T07:18:28.683Z,36.20
2018-02-18T07:20:56.932Z,29.37
2018-02-18T07:23:24.415Z,36.50
2018-02-18T07:25:52.659Z,35.27
2018-02-18T07:28:21.036Z,32.70
2018-02-18T07:30:49.317Z,35.60
2018-02-18T07:33:16.786Z,37.23
2018-02-18T07:35:44.262Z,31.40
2018-02-18T07:38:13.242Z,34.43
2018-02-18T07:40:41.345Z,32.57
2018-02-18T07:43:08.837Z,34.50
2018-02-18T07:45:36.317Z,31.93
2018-02-18T07:48:03.839Z,30.90
2018-02-18T07:50:31.303Z,32.83
2018-02-18T07:52:58.786Z,30.97
2018-02-18T07:55:26.523Z,34.10
2018-02-18T07:57:54.006Z,31.70
2018-02-18T08:00:21.582Z,33.47
2018-02-18T08:02:49.067Z,33.40
2018-02-18T08:05:17.300Z,35.37
2018-02-18T08:07:44.778Z,33.17
2018-02-18T08:10:13.539Z,33.20
2018-02-18T08:12:42.094Z,35.30
2018-02-18T08:15:09.560Z,33.53
2018-02-18T08:17:37.048Z,32.77
2018-02-18T08:20:04.530Z,32.20
2018-02-18T08:22:32.763Z,32.60
2018-02-18T08:25:00.259Z,30.00
2018-02-18T08:27:28.499Z,32.80
2018-02-18T08:29:55.974Z,34.27
2018-02-18T08:32:23.467Z,32.03
2018-02-18T08:34:50.965Z,31.67
2018-02-18T08:37:19.233Z,34.57
2018-02-18T08:39:46.707Z,30.40
2018-02-18T08:42:14.183Z,33.47
2018-02-18T08:44:41.656Z,33.13
2018-02-18T08:47:09.932Z,34.43
2018-02-18T08:49:38.187Z,30.83
2018-02-18T08:52:05.673Z,31.43
2018-02-18T08:54:33.926Z,33.37
2018-02-18T08:57:01.425Z,31.20
2018-02-18T08:59:28.924Z,31.77
2018-02-18T09:01:56.395Z,30.87
2018-02-18T09:04:24.643Z,32.70
2018-02-18T09:06:52.119Z,30.93
2018-02-18T09:09:19.742Z,34.33
2018-02-18T09:11:47.228Z,32.70
2018-02-18T09:14:14.723Z,31.47
2018-02-18T09:16:43.067Z,33.23
2018-02-18T09:19:10.551Z,30.97
2018-02-18T09:21:38.802Z,32.07
2018-02-18T09:24:06.279Z,31.87
2018-02-18T09:26:34.585Z,29.53
2018-02-18T09:29:02.803Z,31.63
2018-02-18T09:31:30.375Z,31.40
2018-02-18T09:33:59.371Z,31.30
2018-02-18T09:36:26.839Z,32.17
2018-02-18T09:38:55.086Z,29.90
2018-02-18T09:41:22.573Z,28.43
2018-02-18T09:43:50.809Z,28.83
2018-02-18T09:46:18.283Z,27.73
2018-02-18T09:48:45.772Z,29.47
2018-02-18T09:51:14.027Z,31.50
2018-02-18T09:53:42.787Z,31.47
2018-02-18T09:56:10.251Z,28.77
2018-02-18T09:58:38.351Z,29.00
2018-02-18T10:01:06.622Z,31.20
2018-02-18T10:03:34.884Z,31.50
2018-02-18T10:06:02.358Z,31.43
2018-02-18T10:08:30.623Z,33.27
2018-02-18T10:10:58.868Z,30.30
2018-02-18T10:13:26.467Z,31.13
2018-02-18T10:15:54.223Z,31.23
2018-02-18T10:18:21.784Z,30.60
2018-02-18T10:20:50.011Z,31.90
2018-02-18T10:23:17.487Z,31.53
2018-02-18T10:25:45.118Z,30.93
2018-02-18T10:28:12.630Z,32.20
2018-02-18T10:30:40.922Z,31.50
2018-02-18T10:33:09.168Z,32.37
2018-02-18T10:35:37.437Z,31.97
2018-02-18T10:38:05.431Z,32.97
2018-02-18T10:40:32.911Z,32.03
2018-02-18T10:43:01.233Z,32.20
2018-02-18T10:45:29.503Z,32.07
2018-02-18T10:47:57.000Z,32.70
2018-02-18T10:50:24.493Z,31.53
2018-02-18T10:52:51.984Z,32.07
2018-02-18T10:55:19.617Z,31.20
2018-02-18T10:57:47.108Z,29.70
2018-02-18T11:00:14.588Z,31.73
2018-02-18T11:02:42.883Z,29.87
2018-02-18T11:05:11.988Z,32.33
2018-02-18T11:07:39.468Z,30.30
2018-02-18T11:10:07.784Z,32.40
2018-02-18T11:12:35.298Z,30.47
2018-02-18T11:15:02.783Z,30.80
2018-02-18T11:17:30.291Z,31.83
2018-02-18T11:19:58.559Z,31.87
2018-02-18T11:22:26.124Z,32.37
2018-02-18T11:24:54.365Z,34.00
2018-02-18T11:27:22.792Z,31.93
2018-02-18T11:29:50.271Z,32.67
2018-02-18T11:32:17.746Z,33.10
2018-02-18T11:34:45.203Z,33.17
2018-02-18T11:37:13.559Z,34.07
2018-02-18T11:39:41.123Z,30.47
2018-02-18T11:42:08.668Z,33.20
2018-02-18T11:44:36.915Z,32.73
2018-02-18T11:47:05.159Z,32.97
2018-02-18T11:49:32.654Z,36.20
2018-02-18T11:52:00.336Z,33.07
2018-02-18T11:54:27.802Z,33.00
2018-02-18T11:56:55.272Z,36.07
2018-02-18T11:59:22.758Z,32.17
2018-02-18T12:01:50.224Z,33.27
2018-02-18T12:04:18.462Z,33.83
2018-02-18T12:06:45.965Z,33.90
2018-02-18T12:09:14.200Z,31.83
2018-02-18T12:11:41.779Z,33.10
2018-02-18T12:14:09.244Z,34.03
2018-02-18T12:16:37.474Z,33.27
2018-02-18T12:19:04.943Z,31.13
2018-02-18T12:21:32.407Z,34.60
2018-02-18T12:23:59.879Z,31.33
2018-02-18T12:26:27.372Z,31.57
2018-02-18T12:28:54.853Z,30.50
2018-02-18T12:31:22.330Z,31.30
2018-02-18T12:33:49.807Z,32.73
2018-02-18T12:36:17.329Z,34.33
2018-02-18T12:38:44.874Z,32.60
2018-02-18T12:41:12.360Z,30.37
2018-02-18T12:43:40.708Z,31.23
2018-02-18T12:46:08.193Z,32.97
2018-02-18T12:48:35.666Z,32.47
2018-02-18T12:51:03.130Z,31.80
2018-02-18T12:53:30.620Z,31.07
2018-02-18T12:55:58.100Z,33.80
2018-02-18T12:58:25.622Z,33.67
2018-02-18T13:00:54.467Z,34.47
2018-02-18T13:03:22.419Z,33.07
2018-02-18T13:05:49.891Z,33.60
2018-02-18T13:08:17.359Z,30.00
2018-02-18T13:10:44.873Z,31.23
2018-02-18T13:13:12.382Z,30.87
2018-02-18T13:15:39.889Z,31.10
2018-02-18T13:18:07.388Z,29.50
2018-02-18T13:20:34.975Z,28.50
2018-02-18T13:23:02.531Z,29.43
2018-02-18T13:25:30.032Z,28.40
2018-02-18T13:27:57.515Z,27.73
2018-02-18T13:30:24.999Z,27.60
2018-02-18T13:32:52.484Z,28.00
2018-02-18T13:35:19.958Z,28.37
2018-02-18T13:37:47.537Z,25.97
2018-02-18T13:40:15.735Z,24.93
2018-02-18T13:42:43.295Z,28.20
2018-02-18T13:45:10.861Z,28.60
2018-02-18T13:47:39.190Z,28.10
2018-02-18T13:50:07.718Z,27.67
2018-02-18T13:52:35.821Z,28.90
2018-02-18T13:55:04.062Z,26.90
2018-02-18T13:57:31.559Z,27.27
2018-02-18T13:59:59.076Z,26.70
2018-02-18T14:02:27.935Z,27.50
2018-02-18T14:04:55.599Z,25.93
2018-02-18T14:07:23.712Z,27.20
2018-02-18T14:09:51.962Z,27.23
2018-02-18T14:12:19.414Z,26.60
2018-02-18T14:14:46.916Z,26.53
2018-02-18T14:17:15.202Z,24.53
2018-02-18T14:19:42.682Z,26.10
2018-02-18T14:22:10.175Z,25.00
2018-02-18T14:24:37.738Z,25.67
2018-02-18T14:27:05.216Z,24.33
2018-02-18T14:29:33.473Z,24.90
2018-02-18T14:32:01.060Z,22.33
2018-02-18T14:34:28.552Z,24.10
2018-02-18T14:36:56.294Z,23.17
2018-02-18T14:39:23.798Z,22.53
2018-02-18T14:42:03.216Z,24.00
2018-02-18T14:44:42.447Z,24.73
2018-02-18T14:47:21.728Z,23.70
2018-02-18T14:50:02.283Z,24.93
2018-02-18T14:52:42.536Z,24.30
2018-02-18T14:55:21.947Z,27.30
2018-02-18T14:57:49.420Z,26.07
2018-02-18T15:00:16.937Z,24.73
2018-02-18T15:02:44.413Z,22.97
2018-02-18T15:05:12.052Z,25.17
2018-02-18T15:07:39.567Z,25.07
2018-02-18T15:10:07.040Z,24.70
2018-02-18T15:12:35.404Z,25.77
2018-02-18T15:15:02.879Z,26.30
2018-02-18T15:17:31.140Z,24.10
2018-02-18T15:19:59.419Z,26.27
2018-02-18T15:22:27.242Z,26.10
2018-02-18T15:24:55.034Z,25.63
2018-02-18T15:27:22.867Z,27.93
2018-02-18T15:29:50.651Z,26.73
2018-02-18T15:32:18.140Z,27.10
2018-02-18T15:34:47.104Z,27.43
2018-02-18T15:37:15.369Z,26.57
2018-02-18T15:39:43.831Z,29.30
2018-02-18T15:42:11.456Z,28.43
2018-02-18T15:44:40.628Z,28.67
2018-02-18T15:47:09.037Z,28.67
2018-02-18T15:49:37.355Z,27.03
2018-02-18T15:52:04.820Z,27.97
2018-02-18T15:54:32.322Z,27.60
2018-02-18T15:57:01.244Z,27.53
2018-02-18T15:59:29.722Z,27.60
2018-02-18T16:01:57.208Z,31.07
2018-02-18T16:04:24.683Z,27.23
2018-02-18T16:06:52.239Z,27.27
2018-02-18T16:09:20.070Z,26.37
2018-02-18T16:11:47.562Z,28.20
2018-02-18T16:14:15.831Z,27.77
2018-02-18T16:16:43.314Z,28.77
2018-02-18T16:19:12.337Z,30.10
2018-02-18T16:21:39.819Z,28.17
2018-02-18T16:24:07.329Z,27.80
2018-02-18T16:26:35.672Z,30.10
2018-02-18T16:29:03.155Z,29.87
2018-02-18T16:31:31.458Z,30.40
2018-02-18T16:33:58.953Z,27.80
2018-02-18T16:36:26.435Z,31.53
2018-02-18T16:38:53.985Z,29.70
2018-02-18T16:41:21.508Z,32.60
2018-02-18T16:43:48.995Z,32.33
2018-02-18T16:46:16.483Z,32.53
2018-02-18T16:48:45.338Z,32.77
2018-02-18T16:51:12.803Z,32.90
2018-02-18T16:53:40.401Z,33.23
2018-02-18T16:56:07.898Z,37.13
2018-02-18T16:58:35.351Z,34.97
2018-02-18T17:01:02.827Z,32.90
2018-02-18T17:03:30.324Z,29.83
2018-02-18T17:05:57.836Z,28.23
2018-02-18T17:08:25.842Z,32.93
2018-02-18T17:10:54.080Z,33.90
2018-02-18T17:13:21.538Z,35.50
2018-02-18T17:15:49.063Z,34.03
2018-02-18T17:18:16.525Z,34.47
2018-02-18T17:20:44.000Z,33.87
2018-02-18T17:23:11.486Z,31.63
2018-02-18T17:25:40.516Z,32.17
2018-02-18T17:28:08.799Z,32.93
2018-02-18T17:30:36.300Z,35.73
2018-02-18T17:33:03.781Z,33.50
2018-02-18T17:35:32.167Z,39.33
2018-02-18T17:38:00.412Z,33.57
2018-02-18T17:40:27.941Z,32.57
2018-02-18T17:42:55.390Z,33.53
2018-02-18T17:45:22.856Z,31.03
2018-02-18T17:47:50.399Z,33.90
2018-02-18T17:50:17.886Z,30.27
2018-02-18T17:52:45.373Z,31.63
2018-02-18T17:55:12.860Z,28.90
2018-02-18T17:57:40.686Z,31.63
2018-02-18T18:00:08.166Z,30.83
2018-02-18T18:02:36.420Z,32.40
2018-02-18T18:05:03.880Z,33.13
2018-02-18T18:07:31.339Z,32.13
2018-02-18T18:10:00.209Z,33.03
2018-02-18T18:12:28.179Z,32.90
2018-02-18T18:14:55.652Z,33.80
2018-02-18T18:17:23.135Z,33.17
2018-02-18T18:19:50.596Z,32.53
2018-02-18T18:22:18.068Z,35.90
2018-02-18T18:24:45.591Z,37.37
2018-02-18T18:27:13.811Z,36.47
2018-02-18T18:29:41.274Z,35.97
2018-02-18T18:32:09.500Z,34.13
2018-02-18T18:34:37.734Z,35.03
2018-02-18T18:37:05.199Z,36.97
2018-02-18T18:39:32.806Z,35.07
2018-02-18T18:42:00.270Z,35.80
2018-02-18T18:44:27.734Z,35.33
2018-02-18T18:46:55.247Z,38.23
2018-02-18T18:49:22.715Z,34.40
2018-02-18T18:51:50.943Z,35.80
2018-02-18T18:54:18.435Z,35.67
2018-02-18T18:56:45.895Z,32.70
2018-02-18T18:59:14.124Z,33.40
2018-02-18T19:01:41.674Z,33.33
2018-02-18T19:04:09.139Z,32.97
2018-02-18T19:06:36.595Z,32.40
2018-02-18T19:09:04.099Z,35.07
2018-02-18T19:11:32.339Z,32.37
2018-02-18T19:13:59.825Z,33.10
2018-02-18T19:16:27.336Z,30.63
2018-02-18T19:18:54.803Z,33.20
2018-02-18T19:21:22.272Z,30.73
2018-02-18T19:23:49.768Z,32.33
2018-02-18T19:26:17.996Z,30.80
2018-02-18T19:28:45.475Z,32.83
2018-02-18T19:31:12.963Z,32.53
2018-02-18T19:33:41.189Z,33.10
2018-02-18T19:36:08.655Z,32.47
2018-02-18T19:38:36.147Z,30.70
2018-02-18T19:41:03.618Z,33.27
2018-02-18T19:43:31.140Z,33.47
2018-02-18T19:45:58.608Z,34.40
2018-02-18T19:48:26.075Z,32.60
2018-02-18T19:50:54.332Z,33.20
2018-02-18T19:53:21.800Z,33.30
2018-02-18T19:55:50.032Z,33.47
2018-02-18T19:58:17.527Z,32.77
2018-02-18T20:00:45.758Z,33.53
2018-02-18T20:03:13.260Z,32.27
2018-02-18T20:05:40.749Z,30.57
2018-02-18T20:08:08.228Z,33.47
2018-02-18T20:10:36.762Z,32.23
2018-02-18T20:13:05.026Z,33.30
2018-02-18T20:15:32.595Z,32.93
2018-02-18T20:18:00.839Z,32.30
2018-02-18T20:20:28.423Z,33.37
2018-02-18T20:22:56.655Z,33.40
2018-02-18T20:25:24.134Z,33.13
2018-02-18T20:27:52.098Z,32.50
2018-02-18T20:30:19.584Z,33.43
2018-02-18T20:32:47.901Z,30.23
2018-02-18T20:35:15.384Z,34.93
2018-02-18T20:37:42.868Z,35.37
2018-02-18T20:40:10.340Z,33.63
2018-02-18T20:42:38.588Z,34.80
2018-02-18T20:45:06.154Z,31.53
2018-02-18T20:47:33.731Z,34.20
2018-02-18T20:50:01.981Z,31.37
2018-02-18T20:52:29.448Z,33.17
2018-02-18T20:54:56.920Z,33.93
2018-02-18T20:57:25.175Z,29.93
2018-02-18T20:59:52.741Z,30.10
2018-02-18T21:02:20.203Z,34.53
2018-02-18T21:04:48.467Z,34.47
2018-02-18T21:07:15.942Z,33.30
2018-02-18T21:09:43.408Z,34.03
2018-02-18T21:12:12.259Z,34.20
2018-02-18T21:14:39.741Z,30.93
2018-02-18T21:17:08.710Z,38.13
2018-02-18T21:19:36.288Z,40.30
2018-02-18T21:22:04.560Z,40.40
2018-02-18T21:24:32.038Z,39.50
2018-02-18T21:27:00.279Z,38.77
2018-02-18T21:29:28.543Z,37.20
2018-02-18T21:31:56.606Z,34.80
2018-02-18T21:34:24.076Z,34.37
2018-02-18T21:36:51.559Z,34.47
2018-02-18T21:39:19.043Z,35.40
2018-02-18T21:41:46.548Z,33.40
2018-02-18T21:44:14.006Z,37.53
2018-02-18T21:46:41.604Z,34.00
2018-02-18T21:49:09.841Z,34.50
2018-02-18T21:51:37.327Z,35.00
2018-02-18T21:54:05.619Z,33.93
2018-02-18T21:56:33.863Z,33.50
2018-02-18T21:59:01.330Z,34.23
2018-02-18T22:01:28.820Z,34.20
2018-02-18T22:03:56.343Z,33.80
2018-02-18T22:06:24.584Z,31.07
2018-02-18T22:08:52.060Z,33.70
2018-02-18T22:11:19.532Z,35.13
2018-02-18T22:13:47.809Z,33.40
2018-02-18T22:16:16.116Z,34.73
2018-02-18T22:18:43.626Z,34.60
2018-02-18T22:21:11.108Z,33.80
2018-02-18T22:23:39.354Z,36.57
2018-02-18T22:26:06.987Z,34.00
2018-02-18T22:28:34.446Z,35.13
2018-02-18T22:31:01.989Z,35.20
2018-02-18T22:33:29.507Z,35.30
2018-02-18T22:35:57.774Z,33.90
2018-02-18T22:38:25.255Z,33.00
2018-02-18T22:40:53.483Z,36.57
2018-02-18T22:43:20.947Z,36.37
2018-02-18T22:45:48.432Z,36.20
2018-02-18T22:48:15.945Z,33.20
2018-02-18T22:50:43.407Z,32.30
2018-02-18T22:53:10.891Z,33.80
2018-02-18T22:55:38.400Z,33.07
2018-02-18T22:58:05.872Z,33.60
2018-02-18T23:00:33.390Z,31.50
2018-02-18T23:03:01.631Z,33.47
2018-02-18T23:05:36.390Z,33.00
2018-02-18T23:08:04.633Z,31.83
2018-02-18T23:10:32.143Z,31.90
2018-02-18T23:12:59.641Z,32.53
2018-02-18T23:15:27.103Z,32.70
2018-02-18T23:17:54.642Z,33.90
2018-02-18T23:20:22.148Z,35.60
2018-02-18T23:22:50.371Z,31.80
2018-02-18T23:25:18.789Z,34.50
2018-02-18T23:27:46.340Z,32.30
2018-02-18T23:30:13.834Z,34.50
2018-02-18T23:32:42.062Z,32.30
2018-02-18T23:35:10.513Z,29.93
2018-02-18T23:40:14.109Z,34.43
2018-02-18T23:42:41.748Z,32.57
2018-02-18T23:45:09.210Z,33.30
2018-02-18T23:47:37.462Z,30.80
2018-02-18T23:50:04.949Z,32.67
2018-02-18T23:52:33.174Z,30.50
2018-02-18T23:55:00.653Z,30.47
2018-02-18T23:57:28.243Z,32.73
2018-02-18T23:59:56.822Z,31.20
